Terminal Aerodrome Forecast
Issued by NWS Spokane, WA

Home | Current Version | Previous Version | Text Only | Print | Product List | Glossary On
Versions: 1 2 3 4 5 6 7 8 9 10 11 12 13 14 15 16 17 18 19 20 21 22 23 24 25 26 27 28 29 30 31 32
000
FTUS46 KOTX 021728 CCA
TAFLWS
TAF COR
KLWS 021728Z 0218/0318 10004KT 6SM BR FEW001 FEW040 SCT250
      TEMPO 0218/0221 3SM BR SCT001 BKN019
     FM022100 10005KT P6SM BKN100 OVC200
     FM030100 13007KT P6SM BKN060 OVC080
     FM030600 18006KT P6SM VCSH OVC040=

USA.gov is the U.S. government's official web portal to all federal, state and local government web resources and services.